Time;durP1;ratioP1;P1;durP2;ratioP2;P2;SDS_P1;SDS_P2;PMS_P1;PMS_P2;Temp;Humidity;BMP_temperature;BMP_pressure;BME280_temperature;BME280_humidity;BME280_pressure;Samples;Min_cycle;Max_cycle;Signal;HPM_P1;HPM_P2
2022/03/27 00:01:34;;;;;;;5.23;3.40;;;8.50;99.90;;;;;;4957243;28;20232;-78
2022/03/27 00:04:01;;;;;;;5.20;3.00;;;8.30;99.90;;;;;;4974728;28;20192;-78
2022/03/27 00:06:26;;;;;;;3.57;3.03;;;8.30;99.90;;;;;;4956607;28;20189;-78
2022/03/27 00:08:52;;;;;;;5.27;3.50;;;8.20;99.90;;;;;;4955511;28;20194;-78
2022/03/27 00:11:23;;;;;;;3.83;3.20;;;8.20;99.90;;;;;;4973224;28;20565;-79
2022/03/27 00:13:59;;;;;;;4.30;3.13;;;8.30;99.90;;;;;;4974709;28;20212;-78
2022/03/27 00:16:24;;;;;;;4.97;3.03;;;8.20;99.90;;;;;;4952528;28;20242;-79
2022/03/27 00:18:51;;;;;;;5.17;3.43;;;8.20;99.90;;;;;;4956701;28;21002;-78
2022/03/27 00:21:17;;;;;;;4.20;3.40;;;8.10;99.90;;;;;;4977073;28;20180;-77
2022/03/27 00:23:43;;;;;;;9.00;3.83;;;8.10;99.90;;;;;;4977565;28;20246;-78
2022/03/27 00:26:10;;;;;;;4.30;3.23;;;8.10;99.90;;;;;;4960927;28;20271;-78
2022/03/27 00:28:36;;;;;;;5.00;3.30;;;8.00;99.90;;;;;;4959393;28;20249;-78
2022/03/27 00:31:04;;;;;;;4.13;3.23;;;7.90;99.90;;;;;;4977387;28;20185;-78
2022/03/27 00:33:31;;;;;;;4.83;3.73;;;7.80;99.90;;;;;;4966297;28;20208;-78
2022/03/27 00:35:57;;;;;;;5.97;3.47;;;7.70;99.90;;;;;;4957273;28;20185;-78
2022/03/27 00:38:25;;;;;;;6.23;3.63;;;7.60;99.90;;;;;;4975741;28;20666;-78
2022/03/27 00:40:51;;;;;;;5.10;4.00;;;7.50;99.90;;;;;;4957701;28;20854;-78
2022/03/27 00:43:18;;;;;;;4.50;3.40;;;7.50;99.90;;;;;;4973430;28;20197;-80
2022/03/27 00:45:43;;;;;;;5.33;3.90;;;7.50;99.90;;;;;;4956776;28;20596;-78
2022/03/27 00:48:10;;;;;;;6.13;3.70;;;7.50;99.90;;;;;;4955513;28;20332;-78
2022/03/27 00:50:36;;;;;;;7.03;3.40;;;7.50;99.90;;;;;;4973179;28;20189;-78
2022/03/27 00:53:02;;;;;;;8.40;4.00;;;7.40;99.90;;;;;;4958450;28;20235;-78
2022/03/27 00:55:27;;;;;;;5.60;3.73;;;7.50;99.90;;;;;;4979116;28;20533;-78
2022/03/27 00:57:55;;;;;;;5.13;3.50;;;7.60;99.90;;;;;;4962981;28;20674;-78
2022/03/27 01:00:42;;;;;;;5.60;3.60;;;7.60;99.90;;;;;;4965973;28;20185;-78
2022/03/27 01:03:17;;;;;;;6.27;3.97;;;7.70;99.90;;;;;;4983023;28;20208;-80
2022/03/27 01:05:44;;;;;;;3.57;3.20;;;7.70;99.90;;;;;;4964254;28;20181;-79
2022/03/27 01:08:12;;;;;;;5.40;4.23;;;7.80;99.90;;;;;;4963845;28;20210;-78
2022/03/27 01:10:39;;;;;;;6.63;4.20;;;7.80;99.90;;;;;;4979663;28;20177;-78
2022/03/27 01:13:25;;;;;;;5.83;4.20;;;7.80;99.90;;;;;;4981636;28;20227;-77
2022/03/27 01:15:57;;;;;;;7.33;4.33;;;7.80;99.90;;;;;;4964411;28;20271;-78
2022/03/27 01:18:23;;;;;;;6.67;4.33;;;7.70;99.90;;;;;;4961150;28;20187;-79
2022/03/27 01:20:49;;;;;;;6.70;4.20;;;7.70;99.90;;;;;;4979509;28;20185;-79
2022/03/27 01:23:15;;;;;;;5.00;4.27;;;7.80;99.90;;;;;;4962852;28;20587;-79
2022/03/27 01:25:43;;;;;;;6.63;4.13;;;7.90;99.90;;;;;;4960832;28;20616;-81
2022/03/27 01:28:11;;;;;;;6.90;4.70;;;7.90;99.90;;;;;;4960518;28;20199;-79
2022/03/27 01:30:37;;;;;;;5.90;4.27;;;7.90;99.90;;;;;;4963585;28;20844;-79
2022/03/27 01:33:05;;;;;;;6.77;5.07;;;7.90;99.90;;;;;;4962195;28;20222;-77
2022/03/27 01:35:32;;;;;;;6.23;4.50;;;7.90;99.90;;;;;;4979471;28;20684;-79
2022/03/27 01:37:57;;;;;;;9.07;5.50;;;7.80;99.90;;;;;;4960556;28;20595;-78
2022/03/27 01:40:23;;;;;;;7.97;5.60;;;7.80;99.90;;;;;;4979137;28;20666;-79
2022/03/27 01:42:52;;;;;;;8.00;5.37;;;7.70;99.90;;;;;;4977607;28;20227;-78
2022/03/27 01:45:18;;;;;;;10.53;6.07;;;7.70;99.90;;;;;;4961700;28;20844;-79
2022/03/27 01:47:44;;;;;;;7.70;5.60;;;7.70;99.90;;;;;;4959763;28;20343;-78
2022/03/27 01:50:10;;;;;;;9.30;5.77;;;7.70;99.90;;;;;;4969683;28;20185;-78
2022/03/27 01:52:36;;;;;;;7.80;5.67;;;7.80;99.90;;;;;;4961491;28;20220;-79
2022/03/27 01:55:01;;;;;;;9.80;6.07;;;7.80;99.90;;;;;;4980179;28;20213;-78
2022/03/27 01:57:27;;;;;;;8.63;6.33;;;7.90;99.90;;;;;;4980238;28;20271;-77
2022/03/27 01:59:53;;;;;;;7.67;5.87;;;7.80;99.90;;;;;;4963193;28;20192;-79
2022/03/27 02:02:23;;;;;;;8.90;6.07;;;7.80;99.90;;;;;;4979577;28;20216;-78
2022/03/27 02:04:50;;;;;;;10.03;7.30;;;7.80;99.90;;;;;;4959942;28;20189;-77
2022/03/27 02:07:16;;;;;;;13.87;7.37;;;7.70;99.90;;;;;;4978940;28;20558;-79
2022/03/27 02:09:42;;;;;;;10.43;7.13;;;7.80;99.90;;;;;;4978872;28;20189;-79
2022/03/27 02:12:08;;;;;;;11.90;7.17;;;7.70;99.90;;;;;;4978643;28;20223;-80
2022/03/27 02:14:34;;;;;;;10.03;7.40;;;7.60;99.90;;;;;;4976522;28;21145;-79
2022/03/27 02:16:59;;;;;;;10.90;6.73;;;7.50;99.90;;;;;;4959268;28;20188;-78
2022/03/27 02:19:25;;;;;;;11.23;7.40;;;7.50;99.90;;;;;;4961272;28;20334;-79
2022/03/27 02:21:51;;;;;;;11.50;7.37;;;7.60;99.90;;;;;;4960397;28;20269;-77
2022/03/27 02:24:17;;;;;;;11.30;8.00;;;7.60;99.90;;;;;;4961634;28;20197;-79
2022/03/27 02:26:47;;;;;;;11.07;8.20;;;7.50;99.90;;;;;;4961416;28;20534;-81
2022/03/27 02:29:14;;;;;;;15.17;8.53;;;7.50;99.90;;;;;;4976798;28;20191;-78
2022/03/27 02:31:40;;;;;;;13.47;7.70;;;7.40;99.90;;;;;;4959779;28;20212;-78
2022/03/27 02:34:06;;;;;;;11.77;7.57;;;7.40;99.90;;;;;;4961236;28;20223;-77
2022/03/27 02:36:31;;;;;;;10.43;6.87;;;7.40;99.90;;;;;;4978516;28;20192;-79
2022/03/27 02:38:57;;;;;;;11.70;8.27;;;7.30;99.90;;;;;;4960438;28;20188;-79
2022/03/27 02:41:23;;;;;;;11.83;8.23;;;7.30;99.90;;;;;;4977093;28;20184;-77
2022/03/27 02:43:48;;;;;;;11.37;8.20;;;7.40;99.90;;;;;;4979430;28;20216;-78
2022/03/27 02:46:14;;;;;;;11.40;7.07;;;7.40;99.90;;;;;;4976929;28;20201;-78
2022/03/27 02:48:39;;;;;;;10.50;7.20;;;7.40;99.90;;;;;;4961540;28;20594;-80
2022/03/27 02:51:05;;;;;;;10.63;7.70;;;7.40;99.90;;;;;;4959736;28;20193;-79
2022/03/27 02:53:31;;;;;;;9.40;6.90;;;7.30;99.90;;;;;;4959403;28;20316;-79
2022/03/27 02:55:57;;;;;;;11.57;8.10;;;7.30;99.90;;;;;;4960730;28;20244;-78
2022/03/27 02:58:22;;;;;;;12.30;7.23;;;7.20;99.90;;;;;;4959735;28;20422;-78
2022/03/27 03:00:48;;;;;;;11.87;7.70;;;7.20;99.90;;;;;;4959680;28;20238;-78
2022/03/27 03:03:14;;;;;;;11.83;7.33;;;7.20;99.90;;;;;;4959995;28;20208;-78
2022/03/27 03:05:41;;;;;;;12.97;8.03;;;7.20;99.90;;;;;;4979602;28;20189;-78
2022/03/27 03:08:11;;;;;;;12.90;8.37;;;7.20;99.90;;;;;;4974937;28;20725;-79
2022/03/27 03:10:40;;;;;;;13.73;8.80;;;7.20;99.90;;;;;;4977171;28;20451;-79
2022/03/27 03:13:09;;;;;;;12.17;8.20;;;7.20;99.90;;;;;;4959128;28;20277;-78
2022/03/27 03:15:41;;;;;;;12.60;8.00;;;7.20;99.90;;;;;;4958855;28;20323;-78
2022/03/27 03:18:11;;;;;;;12.83;8.40;;;7.20;99.90;;;;;;4976185;28;20793;-78
2022/03/27 03:20:38;;;;;;;13.47;8.57;;;7.20;99.90;;;;;;4959098;28;20181;-78
2022/03/27 03:23:04;;;;;;;11.40;7.77;;;7.30;99.90;;;;;;4975600;28;20715;-78
2022/03/27 03:25:30;;;;;;;11.90;8.00;;;7.20;99.90;;;;;;4958305;28;20197;-79
2022/03/27 03:27:56;;;;;;;13.20;8.77;;;7.20;99.90;;;;;;4960036;28;20256;-78
2022/03/27 03:30:22;;;;;;;12.10;7.80;;;7.20;99.90;;;;;;4977343;28;20276;-78
2022/03/27 03:32:48;;;;;;;12.70;7.87;;;7.10;99.90;;;;;;4975710;28;20235;-78
2022/03/27 03:35:14;;;;;;;13.97;8.30;;;7.10;99.90;;;;;;4956617;28;20275;-77
2022/03/27 03:37:40;;;;;;;11.80;8.23;;;7.10;99.90;;;;;;4975565;28;21007;-78
2022/03/27 03:40:09;;;;;;;12.80;8.50;;;7.10;99.90;;;;;;4974350;28;20185;-78
2022/03/27 03:42:35;;;;;;;14.27;8.57;;;7.10;99.90;;;;;;4976365;28;20663;-79
2022/03/27 03:45:02;;;;;;;11.90;8.57;;;7.00;99.90;;;;;;4975874;28;20588;-78
2022/03/27 03:47:28;;;;;;;11.00;7.80;;;7.10;99.90;;;;;;4978290;28;20220;-78
2022/03/27 03:49:53;;;;;;;12.10;7.77;;;7.00;99.90;;;;;;4959672;28;20205;-78
2022/03/27 03:52:19;;;;;;;15.07;8.80;;;7.00;99.90;;;;;;4959499;28;20231;-78
2022/03/27 03:54:45;;;;;;;14.03;8.37;;;7.10;99.90;;;;;;4974895;28;20196;-80
2022/03/27 03:57:10;;;;;;;14.73;8.57;;;7.20;99.90;;;;;;4959626;28;20739;-78
2022/03/27 03:59:36;;;;;;;14.67;8.47;;;7.10;99.90;;;;;;4976493;28;20176;-79
2022/03/27 04:02:05;;;;;;;12.37;7.40;;;7.10;99.90;;;;;;4975632;28;20200;-78
2022/03/27 04:04:32;;;;;;;13.63;8.70;;;7.00;99.90;;;;;;4976400;28;20393;-79
2022/03/27 04:06:58;;;;;;;16.00;8.97;;;7.10;99.90;;;;;;4975011;28;20709;-78
2022/03/27 04:09:24;;;;;;;10.23;8.07;;;7.20;99.90;;;;;;4958483;28;20304;-79
2022/03/27 04:11:51;;;;;;;10.83;7.33;;;7.20;99.90;;;;;;4958609;28;20438;-79
2022/03/27 04:14:17;;;;;;;10.47;7.30;;;7.20;99.90;;;;;;4974821;28;20707;-79
2022/03/27 04:16:43;;;;;;;11.23;7.53;;;7.20;99.90;;;;;;4973457;28;20176;-78
2022/03/27 04:19:09;;;;;;;13.60;7.67;;;7.20;99.90;;;;;;4957348;28;20196;-78
2022/03/27 04:21:34;;;;;;;11.57;7.23;;;7.20;99.90;;;;;;4974329;28;20262;-78
2022/03/27 04:24:00;;;;;;;12.20;8.53;;;7.10;99.90;;;;;;4957411;28;20196;-78
2022/03/27 04:26:26;;;;;;;12.43;7.40;;;7.10;99.90;;;;;;4960521;28;21228;-78
2022/03/27 04:28:51;;;;;;;14.20;8.07;;;7.00;99.90;;;;;;4968602;28;20184;-79
2022/03/27 04:31:18;;;;;;;12.30;8.47;;;7.00;99.90;;;;;;4966894;28;20276;-79
2022/03/27 04:33:44;;;;;;;13.20;7.97;;;7.00;99.90;;;;;;4965723;28;20638;-79
2022/03/27 04:36:09;;;;;;;12.53;8.17;;;7.00;99.90;;;;;;4982570;28;20190;-79
2022/03/27 04:38:36;;;;;;;12.30;7.93;;;7.00;99.90;;;;;;4964102;28;20579;-79
2022/03/27 04:41:02;;;;;;;13.20;8.03;;;7.10;99.90;;;;;;4984627;28;20234;-79
2022/03/27 04:43:28;;;;;;;11.63;8.53;;;7.10;99.90;;;;;;4980123;28;20283;-79
2022/03/27 04:45:55;;;;;;;11.73;8.00;;;7.10;99.90;;;;;;4980363;28;20203;-79
2022/03/27 04:48:21;;;;;;;12.37;8.10;;;7.20;99.90;;;;;;4964739;28;20185;-78
2022/03/27 04:50:48;;;;;;;12.57;8.87;;;7.20;99.90;;;;;;4960129;28;20594;-79
2022/03/27 04:53:13;;;;;;;12.57;8.30;;;7.30;99.90;;;;;;4975979;28;20231;-80
2022/03/27 04:55:39;;;;;;;17.73;9.60;;;7.20;99.90;;;;;;4977764;28;20213;-79
2022/03/27 04:58:08;;;;;;;12.37;8.47;;;7.40;99.90;;;;;;4960467;28;20208;-78
2022/03/27 05:00:34;;;;;;;11.40;8.80;;;7.30;99.90;;;;;;4977262;28;20327;-79
2022/03/27 05:03:00;;;;;;;12.80;8.13;;;7.30;99.90;;;;;;4977507;28;20612;-79
2022/03/27 05:05:26;;;;;;;9.10;7.00;;;7.40;99.90;;;;;;4961335;28;20189;-79
2022/03/27 05:07:53;;;;;;;11.50;7.23;;;7.30;99.90;;;;;;4960320;28;20185;-80
2022/03/27 05:10:19;;;;;;;10.00;7.40;;;7.40;99.90;;;;;;4962178;28;20653;-78
2022/03/27 05:12:45;;;;;;;13.10;8.23;;;7.40;99.90;;;;;;4959448;28;20232;-80
2022/03/27 05:15:12;;;;;;;11.60;7.07;;;7.40;99.90;;;;;;4977604;28;20246;-79
2022/03/27 05:17:54;;;;;;;12.10;7.03;;;7.50;99.90;;;;;;4976502;28;20635;-79
2022/03/27 05:20:21;;;;;;;11.73;7.10;;;7.40;99.90;;;;;;4976246;28;20176;-80
2022/03/27 05:22:46;;;;;;;9.80;6.70;;;7.40;99.90;;;;;;4959530;28;20261;-80
2022/03/27 05:25:13;;;;;;;9.40;6.83;;;7.50;99.90;;;;;;4960362;28;20192;-78
2022/03/27 05:27:58;;;;;;;11.00;6.93;;;7.40;99.90;;;;;;4960446;28;20208;-78
2022/03/27 05:30:26;;;;;;;8.37;6.20;;;7.50;99.90;;;;;;4960266;28;20193;-79
2022/03/27 05:32:53;;;;;;;10.67;7.37;;;7.60;99.90;;;;;;4967496;28;20215;-80
2022/03/27 05:35:20;;;;;;;11.67;7.27;;;7.40;99.90;;;;;;4959459;28;20209;-79
2022/03/27 05:37:47;;;;;;;9.90;6.93;;;7.40;99.90;;;;;;4977033;28;20188;-80
2022/03/27 05:40:18;;;;;;;11.60;7.47;;;7.40;99.90;;;;;;4961882;28;20697;-79
2022/03/27 05:42:44;;;;;;;16.37;6.90;;;7.40;99.90;;;;;;4960665;28;20204;-80
2022/03/27 05:45:10;;;;;;;10.97;6.90;;;7.30;99.90;;;;;;4959571;28;20293;-80
2022/03/27 05:47:41;;;;;;;9.93;7.00;;;7.20;99.90;;;;;;4959496;28;20192;-79
2022/03/27 05:50:08;;;;;;;11.40;7.20;;;7.20;99.90;;;;;;4959734;28;20271;-79
2022/03/27 05:52:34;;;;;;;8.73;6.50;;;7.20;99.90;;;;;;4957653;28;20220;-79
2022/03/27 05:55:00;;;;;;;10.43;6.67;;;7.40;99.90;;;;;;4976104;28;20265;-80
2022/03/27 05:57:26;;;;;;;11.90;7.67;;;7.30;99.90;;;;;;4958160;28;20189;-80
2022/03/27 05:59:52;;;;;;;11.07;6.37;;;7.30;99.90;;;;;;4976657;28;20184;-79
2022/03/27 06:02:17;;;;;;;9.87;6.63;;;7.40;99.90;;;;;;4958876;28;20204;-79
2022/03/27 06:04:43;;;;;;;12.63;7.10;;;7.60;99.90;;;;;;4977783;28;20188;-79
2022/03/27 06:07:09;;;;;;;10.07;6.97;;;7.50;99.90;;;;;;4959383;28;20197;-80
2022/03/27 06:09:35;;;;;;;11.97;6.90;;;7.50;99.90;;;;;;4959883;28;20233;-79
2022/03/27 06:12:04;;;;;;;12.53;6.90;;;7.60;99.90;;;;;;4976226;28;20319;-79
2022/03/27 06:14:29;;;;;;;9.13;6.27;;;7.70;99.90;;;;;;4959609;28;20584;-80
2022/03/27 06:16:55;;;;;;;13.67;7.33;;;7.70;99.90;;;;;;4960846;28;20185;-79
2022/03/27 06:19:21;;;;;;;9.80;5.93;;;7.80;99.90;;;;;;4974999;28;20271;-79
2022/03/27 06:21:46;;;;;;;10.13;6.70;;;7.90;99.90;;;;;;4960542;28;20235;-79
2022/03/27 06:24:12;;;;;;;10.80;6.43;;;7.90;99.90;;;;;;4977855;28;20203;-78
2022/03/27 06:26:42;;;;;;;10.73;6.83;;;7.90;99.90;;;;;;4976762;28;20677;-80
2022/03/27 06:29:09;;;;;;;10.33;6.67;;;8.00;99.90;;;;;;4958121;28;20188;-79
2022/03/27 06:31:38;;;;;;;8.67;6.10;;;8.10;99.90;;;;;;4957732;28;20217;-78
2022/03/27 06:34:06;;;;;;;9.60;6.90;;;8.30;99.90;;;;;;4975687;28;20204;-79
2022/03/27 06:36:35;;;;;;;8.50;6.07;;;8.50;99.90;;;;;;4962437;28;20275;-78
2022/03/27 06:39:03;;;;;;;9.87;6.97;;;8.60;99.90;;;;;;4977913;28;20953;-77
2022/03/27 06:41:29;;;;;;;13.07;6.90;;;8.70;99.90;;;;;;4975606;28;20211;-79
2022/03/27 06:43:55;;;;;;;9.80;6.63;;;8.80;99.90;;;;;;4958467;28;20647;-78
2022/03/27 06:46:21;;;;;;;8.40;6.00;;;8.80;99.90;;;;;;4956699;28;20181;-77
2022/03/27 06:48:49;;;;;;;9.63;6.60;;;8.70;99.90;;;;;;4969740;28;21787;-80
2022/03/27 06:51:15;;;;;;;10.87;6.53;;;8.80;99.90;;;;;;4957610;28;20193;-78
2022/03/27 06:53:41;;;;;;;10.03;6.70;;;8.80;99.90;;;;;;4972045;28;20201;-79
2022/03/27 06:56:07;;;;;;;9.30;6.67;;;8.90;99.90;;;;;;4962704;28;20303;-80
2022/03/27 06:58:33;;;;;;;8.90;6.30;;;9.00;99.90;;;;;;4967855;28;20293;-79
2022/03/27 07:03:44;;;;;;;10.77;6.50;;;9.00;99.90;;;;;;4974820;28;20183;-80
2022/03/27 07:06:10;;;;;;;10.00;6.50;;;9.10;99.90;;;;;;4972724;28;20189;-81
2022/03/27 07:08:36;;;;;;;9.93;6.77;;;9.10;99.90;;;;;;4975073;28;20879;-82
2022/03/27 07:11:03;;;;;;;8.33;6.33;;;9.10;99.90;;;;;;4969925;28;20543;-82
2022/03/27 07:13:30;;;;;;;8.13;6.33;;;9.10;99.90;;;;;;4958558;28;20227;-82
2022/03/27 07:15:56;;;;;;;9.40;7.07;;;9.00;99.90;;;;;;4958170;28;20262;-80
2022/03/27 07:18:22;;;;;;;9.53;6.57;;;9.00;99.90;;;;;;4957019;28;20193;-79
2022/03/27 07:20:48;;;;;;;9.83;6.93;;;9.00;99.90;;;;;;4975290;28;20218;-79
2022/03/27 07:23:17;;;;;;;9.70;6.80;;;9.00;99.90;;;;;;4957732;28;20267;-86
2022/03/27 07:25:45;;;;;;;11.00;7.03;;;9.10;99.90;;;;;;4978158;28;20188;-86
2022/03/27 07:28:12;;;;;;;11.13;7.27;;;9.30;99.90;;;;;;4956950;28;20192;-79
2022/03/27 07:30:41;;;;;;;10.53;7.07;;;9.30;99.90;;;;;;4957580;28;20250;-79
2022/03/27 07:33:06;;;;;;;11.60;7.67;;;9.40;99.90;;;;;;4974760;28;20269;-79
2022/03/27 07:35:32;;;;;;;10.57;7.47;;;9.60;99.90;;;;;;4957960;28;20208;-79
2022/03/27 07:37:59;;;;;;;10.87;7.47;;;9.80;99.90;;;;;;4957987;28;20192;-79
2022/03/27 07:40:25;;;;;;;10.57;7.00;;;9.80;99.90;;;;;;4958426;28;20615;-78
2022/03/27 07:42:51;;;;;;;10.43;7.47;;;9.80;99.90;;;;;;4974688;28;20629;-79
2022/03/27 07:45:21;;;;;;;12.60;7.87;;;9.90;99.90;;;;;;4973014;28;20199;-79
2022/03/27 07:47:49;;;;;;;9.70;7.03;;;10.10;99.90;;;;;;4956131;28;20212;-79
2022/03/27 07:50:17;;;;;;;10.37;7.40;;;10.30;99.90;;;;;;4959182;28;20207;-77
2022/03/27 07:52:44;;;;;;;10.60;7.27;;;10.60;99.90;;;;;;4973166;28;20309;-79
2022/03/27 07:55:13;;;;;;;9.13;7.30;;;10.70;99.90;;;;;;4958071;28;20586;-79
2022/03/27 07:57:38;;;;;;;9.67;7.33;;;10.90;99.90;;;;;;4976905;28;20177;-79
2022/03/27 08:00:07;;;;;;;10.97;7.30;;;10.90;99.90;;;;;;4965803;28;20191;-79
2022/03/27 08:02:33;;;;;;;9.93;7.00;;;10.90;99.90;;;;;;4981229;28;20196;-81
2022/03/27 08:04:58;;;;;;;13.70;7.47;;;10.90;99.90;;;;;;4954181;28;20188;-81
2022/03/27 08:07:24;;;;;;;11.67;7.27;;;10.90;99.90;;;;;;4953925;28;20802;-80
2022/03/27 08:09:50;;;;;;;11.97;7.33;;;10.70;99.90;;;;;;4979069;28;20192;-80
2022/03/27 08:12:17;;;;;;;10.63;7.57;;;10.60;99.90;;;;;;4962195;28;20203;-81
2022/03/27 08:14:43;;;;;;;10.57;6.97;;;10.80;99.90;;;;;;4956810;28;20209;-82
2022/03/27 08:17:09;;;;;;;11.20;7.07;;;10.80;99.90;;;;;;4980757;28;20240;-81
2022/03/27 08:19:35;;;;;;;14.07;9.37;;;10.90;99.90;;;;;;4958834;28;20185;-81
2022/03/27 08:22:01;;;;;;;10.63;6.97;;;11.20;99.90;;;;;;4976019;28;20231;-81
2022/03/27 08:24:27;;;;;;;10.33;7.10;;;11.30;99.90;;;;;;4955068;28;20180;-81
2022/03/27 08:26:55;;;;;;;12.80;6.53;;;11.30;99.90;;;;;;4971909;28;20234;-81
2022/03/27 08:29:24;;;;;;;12.20;8.07;;;11.50;99.90;;;;;;4982015;28;20224;-81
2022/03/27 08:31:50;;;;;;;9.77;7.50;;;11.50;99.90;;;;;;4963414;28;20212;-81
2022/03/27 08:34:17;;;;;;;8.83;7.00;;;11.80;99.90;;;;;;4981955;28;20472;-81
2022/03/27 08:36:44;;;;;;;12.48;7.82;;;11.90;99.90;;;;;;4980320;28;20325;-80
2022/03/27 08:39:10;;;;;;;11.87;8.13;;;12.00;99.90;;;;;;4966976;28;20948;-80
2022/03/27 08:41:36;;;;;;;11.63;7.40;;;11.80;99.90;;;;;;4962608;28;20219;-81
2022/03/27 08:44:02;;;;;;;10.25;6.97;;;11.70;99.90;;;;;;4960910;28;20547;-81
2022/03/27 08:46:29;;;;;;;12.53;8.07;;;11.70;99.90;;;;;;4964591;28;20208;-81
2022/03/27 08:49:01;;;;;;;10.23;8.00;;;12.00;99.90;;;;;;4981380;28;20200;-81
2022/03/27 08:51:54;;;;;;;11.38;7.32;;;12.10;99.90;;;;;;4983001;28;20180;-80
2022/03/27 08:54:23;;;;;;;8.50;7.15;;;12.20;99.90;;;;;;4963733;28;20278;-76
2022/03/27 08:57:04;;;;;;;10.50;6.95;;;12.20;99.90;;;;;;4978180;28;20549;-78
2022/03/27 08:59:31;;;;;;;12.35;8.23;;;12.20;99.90;;;;;;4971554;28;20180;-78
2022/03/27 09:01:58;;;;;;;11.57;7.43;;;12.30;99.90;;;;;;4978172;28;20212;-79
2022/03/27 09:04:25;;;;;;;12.43;8.60;;;12.50;99.90;;;;;;4964297;28;20428;-79
2022/03/27 09:06:51;;;;;;;10.95;8.07;;;12.80;99.90;;;;;;4980363;28;20192;-83
2022/03/27 09:09:17;;;;;;;10.23;7.97;;;13.00;99.90;;;;;;4963843;28;20192;-82
2022/03/27 09:11:43;;;;;;;11.73;7.97;;;12.90;99.90;;;;;;4964982;28;20204;-84
2022/03/27 09:14:10;;;;;;;13.20;8.43;;;12.90;99.90;;;;;;4960513;28;20204;-83
2022/03/27 09:17:02;;;;;;;11.82;8.32;;;13.20;99.90;;;;;;4964957;28;20201;-83
2022/03/27 09:19:39;;;;;;;10.27;8.15;;;13.30;99.90;;;;;;4949813;28;20526;-82
2022/03/27 09:25:28;;;;;;;13.45;9.68;;;13.50;99.90;;;;;;4978964;28;20599;-82
2022/03/27 09:27:57;;;;;;;13.98;8.93;;;13.40;99.90;;;;;;4954446;28;20858;-83
2022/03/27 09:30:22;;;;;;;11.50;8.70;;;13.30;99.90;;;;;;4954546;28;20556;-83
2022/03/27 09:32:48;;;;;;;10.65;9.10;;;13.60;99.90;;;;;;4952830;28;20205;-82
2022/03/27 09:35:17;;;;;;;12.45;9.25;;;13.90;99.90;;;;;;4954019;28;20208;-82
2022/03/27 09:37:47;;;;;;;12.10;8.85;;;14.00;99.90;;;;;;4952470;28;20585;-81
2022/03/27 09:40:14;;;;;;;13.05;9.38;;;13.90;99.90;;;;;;4951873;28;20192;-81
2022/03/27 09:42:41;;;;;;;12.02;9.23;;;13.90;99.90;;;;;;4958193;28;20881;-79
2022/03/27 09:45:23;;;;;;;12.27;9.65;;;13.80;99.90;;;;;;4956321;28;20203;-78
2022/03/27 09:47:51;;;;;;;14.40;9.93;;;13.00;99.90;;;;;;4975603;28;20574;-79
2022/03/27 09:50:33;;;;;;;13.52;9.38;;;13.10;99.90;;;;;;4950231;28;20199;-82
2022/03/27 09:53:28;;;;;;;14.40;9.88;;;13.70;99.90;;;;;;4950682;28;20250;-81
2022/03/27 09:55:53;;;;;;;15.85;9.95;;;14.10;99.90;;;;;;4968745;28;20211;-81
2022/03/27 09:58:43;;;;;;;11.82;9.75;;;14.40;99.90;;;;;;4958978;28;20730;-80
2022/03/27 10:01:26;;;;;;;11.88;9.77;;;14.60;99.90;;;;;;4955366;28;20185;-80
2022/03/27 10:03:59;;;;;;;13.93;10.23;;;14.50;99.90;;;;;;4950348;28;20199;-81
2022/03/27 10:06:38;;;;;;;12.45;9.80;;;14.90;99.90;;;;;;4975907;28;20256;-81
2022/03/27 10:09:07;;;;;;;13.23;10.00;;;14.70;99.90;;;;;;4959356;28;20184;-81
2022/03/27 10:11:34;;;;;;;15.85;9.90;;;14.20;99.90;;;;;;4974323;28;20280;-80
2022/03/27 10:14:00;;;;;;;13.23;9.32;;;13.50;99.90;;;;;;4975782;28;20272;-79
2022/03/27 10:16:34;;;;;;;14.32;10.60;;;13.30;99.90;;;;;;4973776;28;20177;-80
2022/03/27 10:19:07;;;;;;;12.10;9.20;;;13.20;99.90;;;;;;4956214;28;20207;-81
2022/03/27 10:21:35;;;;;;;13.23;10.40;;;13.40;99.90;;;;;;4958547;28;20695;-84
2022/03/27 10:24:16;;;;;;;15.75;9.73;;;13.20;99.90;;;;;;4962459;28;20268;-84
2022/03/27 10:26:44;;;;;;;13.75;10.05;;;13.30;99.90;;;;;;4957899;28;20181;-84
2022/03/27 10:29:13;;;;;;;12.88;10.32;;;13.60;99.90;;;;;;4958999;28;20241;-83
2022/03/27 10:31:39;;;;;;;12.23;10.25;;;14.00;99.90;;;;;;4971739;28;20235;-84
2022/03/27 10:34:06;;;;;;;14.15;10.02;;;14.40;99.90;;;;;;4959519;28;20193;-84
2022/03/27 10:36:53;;;;;;;14.25;10.27;;;14.60;99.90;;;;;;4974754;28;20236;-84
2022/03/27 10:39:26;;;;;;;14.27;10.55;;;14.90;99.90;;;;;;4957616;28;20176;-82
2022/03/27 10:42:07;;;;;;;12.90;9.68;;;14.80;99.90;;;;;;4975082;28;20204;-82
2022/03/27 10:44:36;;;;;;;11.63;10.20;;;14.70;99.90;;;;;;4960841;28;20227;-79
2022/03/27 10:47:17;;;;;;;12.20;9.38;;;14.80;99.90;;;;;;4974172;28;20182;-78
2022/03/27 10:50:05;;;;;;;12.68;9.68;;;15.20;99.90;;;;;;4971032;28;20181;-85
2022/03/27 10:52:50;;;;;;;11.65;9.23;;;15.10;99.90;;;;;;4954545;28;20217;-85
2022/03/27 10:55:16;;;;;;;12.40;9.20;;;14.80;99.90;;;;;;4968999;28;20230;-84
2022/03/27 10:57:51;;;;;;;13.57;10.05;;;14.80;99.90;;;;;;4950110;28;20177;-86
2022/03/27 11:00:40;;;;;;;12.88;9.50;;;14.70;99.90;;;;;;4954955;28;20200;-86
2022/03/27 11:03:06;;;;;;;12.35;9.52;;;14.80;99.90;;;;;;4951694;28;20246;-86
2022/03/27 11:05:31;;;;;;;12.77;9.65;;;14.40;99.90;;;;;;4956752;28;20571;-85
2022/03/27 11:08:18;;;;;;;12.77;9.77;;;14.20;99.90;;;;;;4967201;28;20261;-85
2022/03/27 11:10:50;;;;;;;12.43;9.05;;;14.50;99.90;;;;;;4947523;28;20192;-84
2022/03/27 11:13:33;;;;;;;12.38;9.18;;;14.90;99.90;;;;;;4950608;28;20677;-86
2022/03/27 11:16:04;;;;;;;17.05;9.63;;;15.30;99.90;;;;;;4950446;28;20653;-86
2022/03/27 11:18:38;;;;;;;11.50;9.30;;;15.60;99.90;;;;;;4954221;28;20188;-85
2022/03/27 11:21:04;;;;;;;14.52;9.48;;;15.80;99.90;;;;;;4957266;28;20189;-85
2022/03/27 11:23:32;;;;;;;13.68;10.07;;;16.10;99.90;;;;;;4975114;28;20688;-86
2022/03/27 11:25:59;;;;;;;11.82;8.98;;;16.20;99.90;;;;;;4963495;28;20189;-85
2022/03/27 11:28:41;;;;;;;12.38;9.52;;;16.20;99.90;;;;;;4949206;28;20232;-85
2022/03/27 11:31:10;;;;;;;12.18;9.32;;;16.20;99.90;;;;;;4953719;28;20188;-85
2022/03/27 11:33:37;;;;;;;12.63;9.57;;;15.40;99.90;;;;;;4954915;28;20282;-86
2022/03/27 11:36:14;;;;;;;12.20;9.48;;;14.90;99.90;;;;;;4947279;28;20311;-86
2022/03/27 11:38:52;;;;;;;12.38;8.88;;;15.00;99.90;;;;;;4958160;28;20725;-86
2022/03/27 11:41:45;;;;;;;12.50;9.38;;;15.10;99.90;;;;;;4954704;28;20183;-87
2022/03/27 11:44:22;;;;;;;12.85;9.02;;;15.10;99.90;;;;;;4953248;28;20604;-85
2022/03/27 11:46:56;;;;;;;12.52;9.05;;;15.20;99.90;;;;;;4951508;28;20272;-86
2022/03/27 11:49:23;;;;;;;14.68;9.98;;;15.30;99.90;;;;;;4956911;28;20176;-86
2022/03/27 11:52:10;;;;;;;12.35;9.30;;;15.40;99.90;;;;;;4973029;28;20287;-86
2022/03/27 11:54:36;;;;;;;14.10;9.10;;;15.00;99.90;;;;;;4956528;28;20207;-86
2022/03/27 11:57:03;;;;;;;12.00;8.40;;;15.00;99.90;;;;;;4964599;28;20246;-86
2022/03/27 11:59:31;;;;;;;15.20;10.43;;;15.20;99.90;;;;;;4964605;28;20203;-85
2022/03/27 12:02:03;;;;;;;19.15;12.80;;;15.40;99.90;;;;;;4955977;28;20930;-86
2022/03/27 12:04:29;;;;;;;21.77;13.80;;;15.50;99.90;;;;;;4954311;28;20188;-85
2022/03/27 12:06:59;;;;;;;19.02;12.13;;;15.40;99.90;;;;;;4953875;28;21012;-86
2022/03/27 12:09:27;;;;;;;23.90;14.75;;;15.00;99.90;;;;;;4951628;28;20210;-86
2022/03/27 12:12:14;;;;;;;24.60;15.20;;;14.80;99.90;;;;;;4943880;28;20262;-86
2022/03/27 12:15:02;;;;;;;23.50;15.60;;;14.60;99.90;;;;;;4952099;28;20208;-85
2022/03/27 12:17:36;;;;;;;36.88;22.75;;;14.50;99.90;;;;;;4950606;28;20760;-85
2022/03/27 12:20:09;;;;;;;37.92;22.65;;;14.80;99.90;;;;;;4954695;28;20256;-83
2022/03/27 12:22:39;;;;;;;42.08;23.05;;;15.10;99.90;;;;;;4954899;28;20205;-84
2022/03/27 12:25:22;;;;;;;44.33;25.20;;;15.30;99.90;;;;;;4979671;28;20672;-85
2022/03/27 12:30:53;;;;;;;44.47;24.45;;;15.50;99.90;;;;;;4961367;28;20660;-85
2022/03/27 12:33:20;;;;;;;46.67;27.00;;;15.60;99.90;;;;;;4947539;28;20215;-83
2022/03/27 12:35:49;;;;;;;45.28;26.08;;;15.50;99.90;;;;;;4953218;28;20600;-85
2022/03/27 12:38:32;;;;;;;40.92;24.85;;;15.40;99.90;;;;;;4950988;28;20189;-85
2022/03/27 12:40:57;;;;;;;42.20;24.75;;;15.50;99.90;;;;;;4951475;28;20184;-87
2022/03/27 12:43:23;;;;;;;47.20;25.23;;;15.50;99.90;;;;;;4953752;28;20320;-85
2022/03/27 12:45:48;;;;;;;46.97;25.67;;;15.50;99.90;;;;;;4951384;28;20200;-83
2022/03/27 12:48:20;;;;;;;45.08;25.98;;;15.30;99.90;;;;;;4950552;28;20678;-85
2022/03/27 12:50:51;;;;;;;41.65;24.40;;;15.20;99.90;;;;;;4951005;28;20694;-85
2022/03/27 12:53:23;;;;;;;41.63;23.95;;;15.40;99.90;;;;;;4954259;28;20231;-85
2022/03/27 12:55:57;;;;;;;40.60;23.27;;;15.40;99.90;;;;;;4951996;28;20236;-85
2022/03/27 12:58:35;;;;;;;38.53;22.70;;;15.30;99.90;;;;;;4972121;28;20185;-85
2022/03/27 13:01:08;;;;;;;36.53;22.13;;;15.50;99.90;;;;;;4951087;28;20181;-85
2022/03/27 13:03:35;;;;;;;42.78;22.02;;;15.60;99.90;;;;;;4970184;28;20577;-85